sensor_id;sensor_type;location;lat;lon;timestamp;temperature;humidity
15083;DHT22;7640;53.116;6.878;2023-05-08T00:01:40;13.10;99.90
15083;DHT22;7640;53.116;6.878;2023-05-08T00:04:09;13.10;99.90
15083;DHT22;7640;53.116;6.878;2023-05-08T00:06:38;13.10;99.90
15083;DHT22;7640;53.116;6.878;2023-05-08T00:09:06;13.10;99.90
15083;DHT22;7640;53.116;6.878;2023-05-08T00:11:35;13.10;99.90
15083;DHT22;7640;53.116;6.878;2023-05-08T00:14:04;13.10;99.90
15083;DHT22;7640;53.116;6.878;2023-05-08T00:16:35;13.10;99.90
15083;DHT22;7640;53.116;6.878;2023-05-08T00:19:03;13.10;99.90
15083;DHT22;7640;53.116;6.878;2023-05-08T00:21:32;13.10;99.90
15083;DHT22;7640;53.116;6.878;2023-05-08T00:24:00;13.10;99.90
15083;DHT22;7640;53.116;6.878;2023-05-08T00:26:29;13.10;99.90
15083;DHT22;7640;53.116;6.878;2023-05-08T00:28:57;13.10;99.90
15083;DHT22;7640;53.116;6.878;2023-05-08T00:31:26;13.10;99.90
15083;DHT22;7640;53.116;6.878;2023-05-08T00:33:56;13.10;99.90
15083;DHT22;7640;53.116;6.878;2023-05-08T00:36:24;13.10;99.90
15083;DHT22;7640;53.116;6.878;2023-05-08T00:38:54;13.10;99.90
15083;DHT22;7640;53.116;6.878;2023-05-08T00:41:22;13.10;99.90
15083;DHT22;7640;53.116;6.878;2023-05-08T00:43:51;13.10;99.90
15083;DHT22;7640;53.116;6.878;2023-05-08T00:46:20;13.10;99.90
15083;DHT22;7640;53.116;6.878;2023-05-08T00:48:48;13.10;99.90
15083;DHT22;7640;53.116;6.878;2023-05-08T00:51:19;13.10;99.90
15083;DHT22;7640;53.116;6.878;2023-05-08T00:53:48;13.00;99.90
15083;DHT22;7640;53.116;6.878;2023-05-08T00:56:18;13.00;99.90
15083;DHT22;7640;53.116;6.878;2023-05-08T00:58:48;12.90;99.90
15083;DHT22;7640;53.116;6.878;2023-05-08T01:01:17;12.90;99.90
15083;DHT22;7640;53.116;6.878;2023-05-08T01:03:46;12.80;99.90
15083;DHT22;7640;53.116;6.878;2023-05-08T01:06:17;12.80;99.90
15083;DHT22;7640;53.116;6.878;2023-05-08T01:08:46;12.70;99.90
15083;DHT22;7640;53.116;6.878;2023-05-08T01:11:19;12.60;99.90
15083;DHT22;7640;53.116;6.878;2023-05-08T01:13:58;12.60;99.90
15083;DHT22;7640;53.116;6.878;2023-05-08T01:16:38;12.60;99.90
15083;DHT22;7640;53.116;6.878;2023-05-08T01:19:32;12.50;99.90
15083;DHT22;7640;53.116;6.878;2023-05-08T01:22:39;12.50;99.90
15083;DHT22;7640;53.116;6.878;2023-05-08T01:25:37;12.40;99.90
15083;DHT22;7640;53.116;6.878;2023-05-08T01:28:45;12.30;99.90
15083;DHT22;7640;53.116;6.878;2023-05-08T01:31:50;12.30;99.90
15083;DHT22;7640;53.116;6.878;2023-05-08T01:34:39;12.20;99.90
15083;DHT22;7640;53.116;6.878;2023-05-08T01:37:16;12.20;99.90
15083;DHT22;7640;53.116;6.878;2023-05-08T01:39:55;12.10;99.90
15083;DHT22;7640;53.116;6.878;2023-05-08T01:42:33;12.10;99.90
15083;DHT22;7640;53.116;6.878;2023-05-08T01:45:11;12.10;99.90
15083;DHT22;7640;53.116;6.878;2023-05-08T01:47:44;12.00;99.90
15083;DHT22;7640;53.116;6.878;2023-05-08T01:50:22;12.00;99.90
15083;DHT22;7640;53.116;6.878;2023-05-08T01:52:57;12.00;99.90
15083;DHT22;7640;53.116;6.878;2023-05-08T01:55:33;11.90;99.90
15083;DHT22;7640;53.116;6.878;2023-05-08T01:58:06;11.90;99.90
15083;DHT22;7640;53.116;6.878;2023-05-08T02:00:38;11.90;99.90
15083;DHT22;7640;53.116;6.878;2023-05-08T02:03:10;11.80;99.90
15083;DHT22;7640;53.116;6.878;2023-05-08T02:05:41;11.80;99.90
15083;DHT22;7640;53.116;6.878;2023-05-08T02:08:11;11.80;99.90
15083;DHT22;7640;53.116;6.878;2023-05-08T02:10:42;11.80;99.90
15083;DHT22;7640;53.116;6.878;2023-05-08T02:13:12;11.80;99.90
15083;DHT22;7640;53.116;6.878;2023-05-08T02:15:46;11.70;99.90
15083;DHT22;7640;53.116;6.878;2023-05-08T02:18:20;11.70;99.90
15083;DHT22;7640;53.116;6.878;2023-05-08T02:20:53;11.70;99.90
15083;DHT22;7640;53.116;6.878;2023-05-08T02:23:24;11.70;99.90
15083;DHT22;7640;53.116;6.878;2023-05-08T02:25:54;11.70;99.90
15083;DHT22;7640;53.116;6.878;2023-05-08T02:28:23;11.60;99.90
15083;DHT22;7640;53.116;6.878;2023-05-08T02:30:53;11.60;99.90
15083;DHT22;7640;53.116;6.878;2023-05-08T02:33:26;11.60;99.90
15083;DHT22;7640;53.116;6.878;2023-05-08T02:35:57;11.60;99.90
15083;DHT22;7640;53.116;6.878;2023-05-08T02:38:26;11.50;99.90
15083;DHT22;7640;53.116;6.878;2023-05-08T02:40:59;11.50;99.90
15083;DHT22;7640;53.116;6.878;2023-05-08T02:43:29;11.50;99.90
15083;DHT22;7640;53.116;6.878;2023-05-08T02:46:02;11.50;99.90
15083;DHT22;7640;53.116;6.878;2023-05-08T02:48:43;11.50;99.90
15083;DHT22;7640;53.116;6.878;2023-05-08T02:51:20;11.40;99.90
15083;DHT22;7640;53.116;6.878;2023-05-08T02:53:57;11.40;99.90
15083;DHT22;7640;53.116;6.878;2023-05-08T02:56:36;11.40;99.90
15083;DHT22;7640;53.116;6.878;2023-05-08T02:59:13;11.40;99.90
15083;DHT22;7640;53.116;6.878;2023-05-08T03:01:51;11.40;99.90
15083;DHT22;7640;53.116;6.878;2023-05-08T03:04:30;11.40;99.90
15083;DHT22;7640;53.116;6.878;2023-05-08T03:07:03;11.40;99.90
15083;DHT22;7640;53.116;6.878;2023-05-08T03:09:40;11.30;99.90
15083;DHT22;7640;53.116;6.878;2023-05-08T03:12:14;11.30;99.90
15083;DHT22;7640;53.116;6.878;2023-05-08T03:14:56;11.30;99.90
15083;DHT22;7640;53.116;6.878;2023-05-08T03:17:31;11.30;99.90
15083;DHT22;7640;53.116;6.878;2023-05-08T03:20:04;11.30;99.90
15083;DHT22;7640;53.116;6.878;2023-05-08T03:22:36;11.20;99.90
15083;DHT22;7640;53.116;6.878;2023-05-08T03:25:08;11.20;99.90
15083;DHT22;7640;53.116;6.878;2023-05-08T03:27:37;11.20;99.90
15083;DHT22;7640;53.116;6.878;2023-05-08T03:30:08;11.20;99.90
15083;DHT22;7640;53.116;6.878;2023-05-08T03:32:39;11.20;99.90
15083;DHT22;7640;53.116;6.878;2023-05-08T03:35:10;11.20;99.90
15083;DHT22;7640;53.116;6.878;2023-05-08T03:37:39;11.20;99.90
15083;DHT22;7640;53.116;6.878;2023-05-08T03:40:09;11.20;99.90
15083;DHT22;7640;53.116;6.878;2023-05-08T03:42:39;11.20;99.90
15083;DHT22;7640;53.116;6.878;2023-05-08T03:45:10;11.20;99.90
15083;DHT22;7640;53.116;6.878;2023-05-08T03:47:39;11.20;99.90
15083;DHT22;7640;53.116;6.878;2023-05-08T03:50:12;11.20;99.90
15083;DHT22;7640;53.116;6.878;2023-05-08T03:52:41;11.20;99.90
15083;DHT22;7640;53.116;6.878;2023-05-08T03:55:10;11.20;99.90
15083;DHT22;7640;53.116;6.878;2023-05-08T03:57:43;11.20;99.90
15083;DHT22;7640;53.116;6.878;2023-05-08T04:00:21;11.20;99.90
15083;DHT22;7640;53.116;6.878;2023-05-08T04:03:04;11.20;99.90
15083;DHT22;7640;53.116;6.878;2023-05-08T04:05:58;11.20;99.90
15083;DHT22;7640;53.116;6.878;2023-05-08T04:08:37;11.10;99.90
15083;DHT22;7640;53.116;6.878;2023-05-08T04:11:14;11.10;99.90
15083;DHT22;7640;53.116;6.878;2023-05-08T04:13:48;11.10;99.90
15083;DHT22;7640;53.116;6.878;2023-05-08T04:16:34;11.10;99.90
15083;DHT22;7640;53.116;6.878;2023-05-08T04:19:09;11.10;99.90
15083;DHT22;7640;53.116;6.878;2023-05-08T04:21:42;11.00;99.90
15083;DHT22;7640;53.116;6.878;2023-05-08T04:24:13;11.00;99.90
15083;DHT22;7640;53.116;6.878;2023-05-08T04:26:43;11.00;99.90
15083;DHT22;7640;53.116;6.878;2023-05-08T04:29:13;11.00;99.90
15083;DHT22;7640;53.116;6.878;2023-05-08T04:31:42;11.00;99.90
15083;DHT22;7640;53.116;6.878;2023-05-08T04:34:11;11.00;99.90
15083;DHT22;7640;53.116;6.878;2023-05-08T04:36:41;11.00;99.90
15083;DHT22;7640;53.116;6.878;2023-05-08T04:39:10;11.00;99.90
15083;DHT22;7640;53.116;6.878;2023-05-08T04:41:38;11.00;99.90
15083;DHT22;7640;53.116;6.878;2023-05-08T04:44:07;11.00;99.90
15083;DHT22;7640;53.116;6.878;2023-05-08T04:46:35;11.00;99.90
15083;DHT22;7640;53.116;6.878;2023-05-08T04:49:04;11.00;99.90
15083;DHT22;7640;53.116;6.878;2023-05-08T04:51:33;11.10;99.90
15083;DHT22;7640;53.116;6.878;2023-05-08T04:54:04;11.10;99.90
15083;DHT22;7640;53.116;6.878;2023-05-08T04:56:32;11.10;99.90
15083;DHT22;7640;53.116;6.878;2023-05-08T04:59:01;11.10;99.90
15083;DHT22;7640;53.116;6.878;2023-05-08T05:01:30;11.20;99.90
15083;DHT22;7640;53.116;6.878;2023-05-08T05:03:59;11.20;99.90
15083;DHT22;7640;53.116;6.878;2023-05-08T05:06:27;11.30;99.90
15083;DHT22;7640;53.116;6.878;2023-05-08T05:08:57;11.30;99.90
15083;DHT22;7640;53.116;6.878;2023-05-08T05:11:27;11.30;99.90
15083;DHT22;7640;53.116;6.878;2023-05-08T05:13:55;11.40;99.90
15083;DHT22;7640;53.116;6.878;2023-05-08T05:16:24;11.40;99.90
15083;DHT22;7640;53.116;6.878;2023-05-08T05:18:53;11.40;99.90
15083;DHT22;7640;53.116;6.878;2023-05-08T05:21:22;11.50;99.90
15083;DHT22;7640;53.116;6.878;2023-05-08T05:23:51;11.50;99.90
15083;DHT22;7640;53.116;6.878;2023-05-08T05:26:20;11.60;99.90
15083;DHT22;7640;53.116;6.878;2023-05-08T05:28:50;11.60;99.90
15083;DHT22;7640;53.116;6.878;2023-05-08T05:31:18;11.70;99.90
15083;DHT22;7640;53.116;6.878;2023-05-08T05:33:48;11.70;99.90
15083;DHT22;7640;53.116;6.878;2023-05-08T05:36:16;11.80;99.90
15083;DHT22;7640;53.116;6.878;2023-05-08T05:38:45;11.90;99.90
15083;DHT22;7640;53.116;6.878;2023-05-08T05:41:14;11.90;99.90
15083;DHT22;7640;53.116;6.878;2023-05-08T05:43:43;12.00;99.90
15083;DHT22;7640;53.116;6.878;2023-05-08T05:46:13;12.10;99.90
15083;DHT22;7640;53.116;6.878;2023-05-08T05:48:41;12.10;99.90
15083;DHT22;7640;53.116;6.878;2023-05-08T05:51:10;12.20;99.90
15083;DHT22;7640;53.116;6.878;2023-05-08T05:53:38;12.20;99.90
15083;DHT22;7640;53.116;6.878;2023-05-08T05:56:07;12.30;99.90
15083;DHT22;7640;53.116;6.878;2023-05-08T05:58:35;12.30;99.90
15083;DHT22;7640;53.116;6.878;2023-05-08T06:01:06;12.40;99.90
15083;DHT22;7640;53.116;6.878;2023-05-08T06:03:36;12.50;99.90
15083;DHT22;7640;53.116;6.878;2023-05-08T06:06:05;12.60;99.90
15083;DHT22;7640;53.116;6.878;2023-05-08T06:08:34;12.60;99.90
15083;DHT22;7640;53.116;6.878;2023-05-08T06:11:02;12.70;99.90
15083;DHT22;7640;53.116;6.878;2023-05-08T06:13:31;12.70;99.90
15083;DHT22;7640;53.116;6.878;2023-05-08T06:15:59;12.80;99.90
15083;DHT22;7640;53.116;6.878;2023-05-08T06:18:28;12.90;99.90
15083;DHT22;7640;53.116;6.878;2023-05-08T06:20:58;12.90;99.90
15083;DHT22;7640;53.116;6.878;2023-05-08T06:23:27;13.00;99.90
15083;DHT22;7640;53.116;6.878;2023-05-08T06:25:57;13.10;99.90
15083;DHT22;7640;53.116;6.878;2023-05-08T06:28:27;13.10;99.90
15083;DHT22;7640;53.116;6.878;2023-05-08T06:30:56;13.20;99.90
15083;DHT22;7640;53.116;6.878;2023-05-08T06:33:25;13.30;99.90
15083;DHT22;7640;53.116;6.878;2023-05-08T06:35:53;13.40;99.90
15083;DHT22;7640;53.116;6.878;2023-05-08T06:38:23;13.60;99.90
15083;DHT22;7640;53.116;6.878;2023-05-08T06:40:52;13.70;99.90
15083;DHT22;7640;53.116;6.878;2023-05-08T06:43:22;13.90;99.90
15083;DHT22;7640;53.116;6.878;2023-05-08T06:45:50;14.00;99.90
15083;DHT22;7640;53.116;6.878;2023-05-08T06:48:20;14.10;99.90
15083;DHT22;7640;53.116;6.878;2023-05-08T06:50:50;14.20;99.90
15083;DHT22;7640;53.116;6.878;2023-05-08T06:53:19;14.30;99.90
15083;DHT22;7640;53.116;6.878;2023-05-08T06:55:50;14.40;99.90
15083;DHT22;7640;53.116;6.878;2023-05-08T06:58:18;14.50;99.90
15083;DHT22;7640;53.116;6.878;2023-05-08T07:00:47;14.60;99.90
15083;DHT22;7640;53.116;6.878;2023-05-08T07:03:16;14.70;99.90
15083;DHT22;7640;53.116;6.878;2023-05-08T07:05:44;14.80;99.90
15083;DHT22;7640;53.116;6.878;2023-05-08T07:08:13;14.80;99.90
15083;DHT22;7640;53.116;6.878;2023-05-08T07:10:42;14.90;99.90
15083;DHT22;7640;53.116;6.878;2023-05-08T07:13:12;15.00;99.90
15083;DHT22;7640;53.116;6.878;2023-05-08T07:15:40;15.10;99.90
15083;DHT22;7640;53.116;6.878;2023-05-08T07:18:09;15.20;99.90
15083;DHT22;7640;53.116;6.878;2023-05-08T07:20:37;15.30;99.90
15083;DHT22;7640;53.116;6.878;2023-05-08T07:23:06;15.40;99.90
15083;DHT22;7640;53.116;6.878;2023-05-08T07:25:35;15.50;99.90
15083;DHT22;7640;53.116;6.878;2023-05-08T07:28:04;15.60;99.90
15083;DHT22;7640;53.116;6.878;2023-05-08T07:30:35;15.70;99.90
15083;DHT22;7640;53.116;6.878;2023-05-08T07:33:03;15.80;99.90
15083;DHT22;7640;53.116;6.878;2023-05-08T07:35:32;15.90;99.90
15083;DHT22;7640;53.116;6.878;2023-05-08T07:38:01;15.90;99.90
15083;DHT22;7640;53.116;6.878;2023-05-08T07:40:29;16.00;99.90
15083;DHT22;7640;53.116;6.878;2023-05-08T07:42:58;16.20;99.90
15083;DHT22;7640;53.116;6.878;2023-05-08T07:45:26;16.20;99.90
15083;DHT22;7640;53.116;6.878;2023-05-08T07:47:57;16.30;99.90
15083;DHT22;7640;53.116;6.878;2023-05-08T07:50:26;16.40;99.90
15083;DHT22;7640;53.116;6.878;2023-05-08T07:52:55;16.50;99.90
15083;DHT22;7640;53.116;6.878;2023-05-08T07:55:24;16.60;99.90
15083;DHT22;7640;53.116;6.878;2023-05-08T07:57:53;16.70;99.90
15083;DHT22;7640;53.116;6.878;2023-05-08T08:00:21;16.80;99.90
15083;DHT22;7640;53.116;6.878;2023-05-08T08:02:50;16.90;99.90
15083;DHT22;7640;53.116;6.878;2023-05-08T08:05:21;16.90;99.90
15083;DHT22;7640;53.116;6.878;2023-05-08T08:07:50;17.00;99.90
15083;DHT22;7640;53.116;6.878;2023-05-08T08:10:20;17.10;99.90
15083;DHT22;7640;53.116;6.878;2023-05-08T08:12:48;17.30;99.90
15083;DHT22;7640;53.116;6.878;2023-05-08T08:15:17;17.40;99.90
15083;DHT22;7640;53.116;6.878;2023-05-08T08:17:46;17.60;99.90
15083;DHT22;7640;53.116;6.878;2023-05-08T08:20:15;17.70;99.90
15083;DHT22;7640;53.116;6.878;2023-05-08T08:22:46;17.90;99.90
15083;DHT22;7640;53.116;6.878;2023-05-08T08:25:14;18.00;99.90
15083;DHT22;7640;53.116;6.878;2023-05-08T08:27:43;18.00;99.90
15083;DHT22;7640;53.116;6.878;2023-05-08T08:30:12;18.10;99.90
15083;DHT22;7640;53.116;6.878;2023-05-08T08:32:46;18.20;99.90
15083;DHT22;7640;53.116;6.878;2023-05-08T08:35:15;18.30;99.90
15083;DHT22;7640;53.116;6.878;2023-05-08T08:37:45;18.40;99.90
15083;DHT22;7640;53.116;6.878;2023-05-08T08:40:14;18.50;99.90
15083;DHT22;7640;53.116;6.878;2023-05-08T08:42:43;18.70;99.90
15083;DHT22;7640;53.116;6.878;2023-05-08T08:45:12;18.80;99.90
15083;DHT22;7640;53.116;6.878;2023-05-08T08:47:43;18.90;99.90
15083;DHT22;7640;53.116;6.878;2023-05-08T08:50:13;18.90;99.90
15083;DHT22;7640;53.116;6.878;2023-05-08T08:52:50;19.00;99.90
15083;DHT22;7640;53.116;6.878;2023-05-08T08:55:24;19.20;99.90
15083;DHT22;7640;53.116;6.878;2023-05-08T08:58:01;19.30;99.90
15083;DHT22;7640;53.116;6.878;2023-05-08T09:00:35;19.60;99.90
15083;DHT22;7640;53.116;6.878;2023-05-08T09:03:04;19.90;99.90
15083;DHT22;7640;53.116;6.878;2023-05-08T09:05:34;20.20;99.90
15083;DHT22;7640;53.116;6.878;2023-05-08T09:08:05;20.50;99.90
15083;DHT22;7640;53.116;6.878;2023-05-08T09:10:34;20.60;99.90
15083;DHT22;7640;53.116;6.878;2023-05-08T09:13:03;20.80;99.90
15083;DHT22;7640;53.116;6.878;2023-05-08T09:15:32;20.90;99.90
15083;DHT22;7640;53.116;6.878;2023-05-08T09:18:01;20.90;99.90
15083;DHT22;7640;53.116;6.878;2023-05-08T09:20:30;20.90;99.90
15083;DHT22;7640;53.116;6.878;2023-05-08T09:23:00;20.90;99.90
15083;DHT22;7640;53.116;6.878;2023-05-08T09:25:44;21.00;99.90
15083;DHT22;7640;53.116;6.878;2023-05-08T09:28:16;21.10;99.90
15083;DHT22;7640;53.116;6.878;2023-05-08T09:30:51;21.20;99.90
15083;DHT22;7640;53.116;6.878;2023-05-08T09:33:22;21.20;99.90
15083;DHT22;7640;53.116;6.878;2023-05-08T09:35:52;21.30;99.90
15083;DHT22;7640;53.116;6.878;2023-05-08T09:38:35;21.40;99.90
15083;DHT22;7640;53.116;6.878;2023-05-08T09:41:14;21.50;99.90
15083;DHT22;7640;53.116;6.878;2023-05-08T09:43:44;21.60;99.90
15083;DHT22;7640;53.116;6.878;2023-05-08T09:46:27;21.50;99.90
15083;DHT22;7640;53.116;6.878;2023-05-08T09:48:58;21.40;99.90
15083;DHT22;7640;53.116;6.878;2023-05-08T09:51:28;21.40;99.90
15083;DHT22;7640;53.116;6.878;2023-05-08T09:53:59;21.50;99.90
15083;DHT22;7640;53.116;6.878;2023-05-08T09:56:33;21.50;99.90
15083;DHT22;7640;53.116;6.878;2023-05-08T09:59:03;21.60;99.90
15083;DHT22;7640;53.116;6.878;2023-05-08T10:01:33;21.60;99.90
15083;DHT22;7640;53.116;6.878;2023-05-08T10:04:02;21.70;99.90
15083;DHT22;7640;53.116;6.878;2023-05-08T10:06:32;21.70;99.90
15083;DHT22;7640;53.116;6.878;2023-05-08T10:09:06;21.80;99.90
15083;DHT22;7640;53.116;6.878;2023-05-08T10:11:38;21.80;99.90
15083;DHT22;7640;53.116;6.878;2023-05-08T10:14:07;21.90;99.90
15083;DHT22;7640;53.116;6.878;2023-05-08T10:16:40;21.90;99.90
15083;DHT22;7640;53.116;6.878;2023-05-08T10:19:12;22.00;99.90
15083;DHT22;7640;53.116;6.878;2023-05-08T10:21:44;22.00;99.90
15083;DHT22;7640;53.116;6.878;2023-05-08T10:24:16;22.10;99.90
15083;DHT22;7640;53.116;6.878;2023-05-08T10:26:56;22.20;99.90
15083;DHT22;7640;53.116;6.878;2023-05-08T10:29:40;22.30;99.90
15083;DHT22;7640;53.116;6.878;2023-05-08T10:32:10;22.40;99.90
15083;DHT22;7640;53.116;6.878;2023-05-08T10:34:40;22.50;99.90
15083;DHT22;7640;53.116;6.878;2023-05-08T10:37:11;22.60;99.90
15083;DHT22;7640;53.116;6.878;2023-05-08T10:39:42;22.70;99.90
15083;DHT22;7640;53.116;6.878;2023-05-08T10:42:13;22.90;99.90
15083;DHT22;7640;53.116;6.878;2023-05-08T10:44:42;23.00;99.90
15083;DHT22;7640;53.116;6.878;2023-05-08T10:47:17;23.10;99.90
15083;DHT22;7640;53.116;6.878;2023-05-08T10:49:54;23.10;99.90
15083;DHT22;7640;53.116;6.878;2023-05-08T10:52:34;23.20;99.90
15083;DHT22;7640;53.116;6.878;2023-05-08T10:55:18;23.40;99.90
15083;DHT22;7640;53.116;6.878;2023-05-08T10:58:09;23.50;99.90
15083;DHT22;7640;53.116;6.878;2023-05-08T11:01:11;23.70;99.90
15083;DHT22;7640;53.116;6.878;2023-05-08T11:03:45;23.90;99.90
15083;DHT22;7640;53.116;6.878;2023-05-08T11:06:17;24.00;99.90
15083;DHT22;7640;53.116;6.878;2023-05-08T11:09:20;24.00;99.90
15083;DHT22;7640;53.116;6.878;2023-05-08T11:14:54;24.20;99.90
15083;DHT22;7640;53.116;6.878;2023-05-08T11:17:26;24.40;99.90
15083;DHT22;7640;53.116;6.878;2023-05-08T11:19:56;24.40;99.90
15083;DHT22;7640;53.116;6.878;2023-05-08T11:22:28;24.40;99.90
15083;DHT22;7640;53.116;6.878;2023-05-08T11:24:59;24.40;99.90
15083;DHT22;7640;53.116;6.878;2023-05-08T11:27:37;24.50;99.90
15083;DHT22;7640;53.116;6.878;2023-05-08T11:30:24;24.60;99.90
15083;DHT22;7640;53.116;6.878;2023-05-08T11:33:10;24.80;99.90
15083;DHT22;7640;53.116;6.878;2023-05-08T11:35:45;24.90;99.90
15083;DHT22;7640;53.116;6.878;2023-05-08T11:38:17;25.00;99.90
15083;DHT22;7640;53.116;6.878;2023-05-08T11:40:55;25.10;99.90
15083;DHT22;7640;53.116;6.878;2023-05-08T11:43:30;25.30;99.90
15083;DHT22;7640;53.116;6.878;2023-05-08T11:46:16;25.50;99.90
15083;DHT22;7640;53.116;6.878;2023-05-08T11:48:47;25.80;99.90
15083;DHT22;7640;53.116;6.878;2023-05-08T11:51:17;26.00;99.90
15083;DHT22;7640;53.116;6.878;2023-05-08T11:53:46;26.30;99.90
15083;DHT22;7640;53.116;6.878;2023-05-08T11:56:16;26.50;99.90
15083;DHT22;7640;53.116;6.878;2023-05-08T11:58:45;26.70;99.90
15083;DHT22;7640;53.116;6.878;2023-05-08T12:01:19;26.90;99.90
15083;DHT22;7640;53.116;6.878;2023-05-08T12:03:48;27.10;99.90
15083;DHT22;7640;53.116;6.878;2023-05-08T12:06:17;27.20;99.90
15083;DHT22;7640;53.116;6.878;2023-05-08T12:08:47;27.40;99.90
15083;DHT22;7640;53.116;6.878;2023-05-08T12:11:21;27.70;99.90
15083;DHT22;7640;53.116;6.878;2023-05-08T12:13:51;28.00;99.90
15083;DHT22;7640;53.116;6.878;2023-05-08T12:16:23;28.10;99.90
15083;DHT22;7640;53.116;6.878;2023-05-08T12:18:55;28.40;99.90
15083;DHT22;7640;53.116;6.878;2023-05-08T12:21:23;28.60;99.90
15083;DHT22;7640;53.116;6.878;2023-05-08T12:23:53;28.70;99.90
15083;DHT22;7640;53.116;6.878;2023-05-08T12:26:22;28.90;99.90
15083;DHT22;7640;53.116;6.878;2023-05-08T12:28:53;29.10;99.90
15083;DHT22;7640;53.116;6.878;2023-05-08T12:31:24;29.40;99.90
15083;DHT22;7640;53.116;6.878;2023-05-08T12:33:53;29.60;99.90
15083;DHT22;7640;53.116;6.878;2023-05-08T12:36:22;29.90;99.90
15083;DHT22;7640;53.116;6.878;2023-05-08T12:38:51;30.20;99.90
15083;DHT22;7640;53.116;6.878;2023-05-08T12:41:22;30.40;99.90
15083;DHT22;7640;53.116;6.878;2023-05-08T12:43:52;30.60;99.90
15083;DHT22;7640;53.116;6.878;2023-05-08T12:46:24;30.60;99.90
15083;DHT22;7640;53.116;6.878;2023-05-08T12:48:59;30.70;99.70
15083;DHT22;7640;53.116;6.878;2023-05-08T12:51:30;30.80;99.30
15083;DHT22;7640;53.116;6.878;2023-05-08T12:53:59;31.00;99.90
15083;DHT22;7640;53.116;6.878;2023-05-08T12:56:27;31.20;99.90
15083;DHT22;7640;53.116;6.878;2023-05-08T12:58:58;31.50;98.40
15083;DHT22;7640;53.116;6.878;2023-05-08T13:01:28;31.60;97.50
15083;DHT22;7640;53.116;6.878;2023-05-08T13:03:57;31.80;96.50
15083;DHT22;7640;53.116;6.878;2023-05-08T13:06:29;32.20;97.20
15083;DHT22;7640;53.116;6.878;2023-05-08T13:08:57;32.40;97.20
15083;DHT22;7640;53.116;6.878;2023-05-08T13:11:29;32.70;96.80
15083;DHT22;7640;53.116;6.878;2023-05-08T13:13:59;33.00;96.10
15083;DHT22;7640;53.116;6.878;2023-05-08T13:16:29;33.10;94.00
15083;DHT22;7640;53.116;6.878;2023-05-08T13:18:58;33.30;94.00
15083;DHT22;7640;53.116;6.878;2023-05-08T13:21:26;33.30;93.30
15083;DHT22;7640;53.116;6.878;2023-05-08T13:23:55;33.40;93.40
15083;DHT22;7640;53.116;6.878;2023-05-08T13:26:24;33.60;93.40
15083;DHT22;7640;53.116;6.878;2023-05-08T13:28:53;33.80;92.80
15083;DHT22;7640;53.116;6.878;2023-05-08T13:31:22;33.70;92.30
15083;DHT22;7640;53.116;6.878;2023-05-08T13:33:52;33.50;91.90
15083;DHT22;7640;53.116;6.878;2023-05-08T13:36:21;33.10;92.10
15083;DHT22;7640;53.116;6.878;2023-05-08T13:38:50;33.00;92.20
15083;DHT22;7640;53.116;6.878;2023-05-08T13:41:21;33.20;92.50
15083;DHT22;7640;53.116;6.878;2023-05-08T13:43:49;33.60;92.20
15083;DHT22;7640;53.116;6.878;2023-05-08T13:46:18;33.90;91.90
15083;DHT22;7640;53.116;6.878;2023-05-08T13:48:47;34.30;91.60
15083;DHT22;7640;53.116;6.878;2023-05-08T13:51:17;34.60;90.80
15083;DHT22;7640;53.116;6.878;2023-05-08T13:53:46;34.70;90.50
15083;DHT22;7640;53.116;6.878;2023-05-08T13:56:14;34.80;89.40
15083;DHT22;7640;53.116;6.878;2023-05-08T13:58:42;35.00;89.10
15083;DHT22;7640;53.116;6.878;2023-05-08T14:01:11;35.10;87.30
15083;DHT22;7640;53.116;6.878;2023-05-08T14:03:52;34.80;87.00
15083;DHT22;7640;53.116;6.878;2023-05-08T14:06:22;34.10;87.90
15083;DHT22;7640;53.116;6.878;2023-05-08T14:08:51;33.50;88.40
15083;DHT22;7640;53.116;6.878;2023-05-08T14:11:23;32.80;90.20
15083;DHT22;7640;53.116;6.878;2023-05-08T14:13:52;32.70;91.00
15083;DHT22;7640;53.116;6.878;2023-05-08T14:16:21;32.60;91.40
15083;DHT22;7640;53.116;6.878;2023-05-08T14:18:51;32.40;91.00
15083;DHT22;7640;53.116;6.878;2023-05-08T14:21:21;32.30;91.50
15083;DHT22;7640;53.116;6.878;2023-05-08T14:23:50;32.60;92.00
15083;DHT22;7640;53.116;6.878;2023-05-08T14:26:19;33.10;91.70
15083;DHT22;7640;53.116;6.878;2023-05-08T14:28:48;33.70;91.00
15083;DHT22;7640;53.116;6.878;2023-05-08T14:31:17;34.20;90.70
15083;DHT22;7640;53.116;6.878;2023-05-08T14:33:46;34.40;88.50
15083;DHT22;7640;53.116;6.878;2023-05-08T14:36:14;34.20;88.10
15083;DHT22;7640;53.116;6.878;2023-05-08T14:38:44;33.70;89.20
15083;DHT22;7640;53.116;6.878;2023-05-08T14:41:12;33.20;90.30
15083;DHT22;7640;53.116;6.878;2023-05-08T14:43:41;32.70;90.40
15083;DHT22;7640;53.116;6.878;2023-05-08T14:46:09;32.50;90.90
15083;DHT22;7640;53.116;6.878;2023-05-08T14:48:38;32.70;91.10
15083;DHT22;7640;53.116;6.878;2023-05-08T14:51:07;33.10;90.80
15083;DHT22;7640;53.116;6.878;2023-05-08T14:53:35;33.50;90.70
15083;DHT22;7640;53.116;6.878;2023-05-08T14:56:06;33.70;89.50
15083;DHT22;7640;53.116;6.878;2023-05-08T14:58:35;33.70;88.60
15083;DHT22;7640;53.116;6.878;2023-05-08T15:01:04;33.30;89.60
15083;DHT22;7640;53.116;6.878;2023-05-08T15:03:32;33.10;90.00
15083;DHT22;7640;53.116;6.878;2023-05-08T15:06:01;32.80;90.40
15083;DHT22;7640;53.116;6.878;2023-05-08T15:08:31;32.40;90.30
15083;DHT22;7640;53.116;6.878;2023-05-08T15:10:59;31.80;90.80
15083;DHT22;7640;53.116;6.878;2023-05-08T15:13:29;31.30;91.20
15083;DHT22;7640;53.116;6.878;2023-05-08T15:15:58;30.70;92.10
15083;DHT22;7640;53.116;6.878;2023-05-08T15:18:31;30.30;92.80
15083;DHT22;7640;53.116;6.878;2023-05-08T15:20:59;29.90;93.70
15083;DHT22;7640;53.116;6.878;2023-05-08T15:23:28;29.50;94.00
15083;DHT22;7640;53.116;6.878;2023-05-08T15:25:56;29.10;94.50
15083;DHT22;7640;53.116;6.878;2023-05-08T15:28:25;28.70;94.80
15083;DHT22;7640;53.116;6.878;2023-05-08T15:30:55;28.30;95.40
15083;DHT22;7640;53.116;6.878;2023-05-08T15:33:25;27.90;95.80
15083;DHT22;7640;53.116;6.878;2023-05-08T15:35:53;27.50;96.30
15083;DHT22;7640;53.116;6.878;2023-05-08T15:38:22;27.10;97.00
15083;DHT22;7640;53.116;6.878;2023-05-08T15:40:50;26.90;97.60
15083;DHT22;7640;53.116;6.878;2023-05-08T15:43:20;26.50;98.30
15083;DHT22;7640;53.116;6.878;2023-05-08T15:45:49;26.10;99.10
15083;DHT22;7640;53.116;6.878;2023-05-08T15:48:20;25.80;99.90
15083;DHT22;7640;53.116;6.878;2023-05-08T15:50:49;25.50;99.90
15083;DHT22;7640;53.116;6.878;2023-05-08T15:53:17;25.30;99.90
15083;DHT22;7640;53.116;6.878;2023-05-08T15:55:46;25.00;99.90
15083;DHT22;7640;53.116;6.878;2023-05-08T15:58:15;24.70;99.90
15083;DHT22;7640;53.116;6.878;2023-05-08T16:00:43;24.40;99.90
15083;DHT22;7640;53.116;6.878;2023-05-08T16:03:12;24.30;99.90
15083;DHT22;7640;53.116;6.878;2023-05-08T16:05:42;24.20;99.90
15083;DHT22;7640;53.116;6.878;2023-05-08T16:08:10;24.10;99.90
15083;DHT22;7640;53.116;6.878;2023-05-08T16:10:39;24.00;99.90
15083;DHT22;7640;53.116;6.878;2023-05-08T16:13:08;23.90;99.90
15083;DHT22;7640;53.116;6.878;2023-05-08T16:15:37;23.90;99.90